Time;durP1;ratioP1;P1;durP2;ratioP2;P2;SDS_P1;SDS_P2;PMS_P1;PMS_P2;Temp;Humidity;BMP_temperature;BMP_pressure;BME280_temperature;BME280_humidity;BME280_pressure;Samples;Min_cycle;Max_cycle;Signal;HPM_P1;HPM_P2
2023/07/18 00:01:39;;;;;;;;;;;17.00;1.00;;;;;;4984800;28;20439;-80
2023/07/18 00:04:05;;;;;;;;;;;17.00;1.00;;;;;;5022073;28;19939;-80
2023/07/18 00:06:32;;;;;;;;;;;17.00;1.00;;;;;;5000035;28;19932;-80
2023/07/18 00:08:57;;;;;;;;;;;17.00;1.00;;;;;;5037252;28;19924;-81
2023/07/18 00:11:23;;;;;;;;;;;17.00;1.00;;;;;;5019051;28;20274;-80
2023/07/18 00:13:50;;;;;;;;;;;17.00;1.00;;;;;;5000672;28;19933;-80
2023/07/18 00:16:16;;;;;;;;;;;17.00;1.00;;;;;;5034624;28;20292;-80
2023/07/18 00:18:41;;;;;;;;;;;17.00;1.00;;;;;;5019311;28;20840;-80
2023/07/18 00:21:07;;;;;;;;;;;17.00;1.00;;;;;;5004563;28;19928;-80
2023/07/18 00:23:33;;;;;;;;;;;17.00;1.00;;;;;;5017452;28;20375;-78
2023/07/18 00:25:59;;;;;;;;;;;17.00;1.00;;;;;;5034675;28;19968;-79
2023/07/18 00:28:25;;;;;;;;;;;17.00;1.00;;;;;;5018243;28;20019;-79
2023/07/18 00:30:50;;;;;;;;;;;17.00;1.00;;;;;;5022709;28;19935;-79
2023/07/18 00:33:16;;;;;;;;;;;17.00;1.00;;;;;;5037370;28;19951;-79
2023/07/18 00:35:43;;;;;;;;;;;16.90;1.00;;;;;;5020619;28;19986;-75
2023/07/18 00:38:11;;;;;;;;;;;16.90;1.00;;;;;;5030550;28;19943;-77
2023/07/18 00:40:37;;;;;;;;;;;16.90;1.00;;;;;;5009975;28;20034;-83
2023/07/18 00:43:03;;;;;;;;;;;16.90;1.00;;;;;;5043166;28;19932;-79
2023/07/18 00:45:29;;;;;;;;;;;16.90;1.00;;;;;;5001577;28;19928;-78
2023/07/18 00:47:55;;;;;;;;;;;16.90;1.00;;;;;;5019009;28;19960;-80
2023/07/18 00:50:21;;;;;;;;;;;16.90;1.00;;;;;;5041153;28;19939;-78
2023/07/18 00:52:48;;;;;;;;;;;16.90;1.00;;;;;;5031044;28;19929;-83
2023/07/18 00:55:14;;;;;;;;;;;16.90;1.00;;;;;;5031181;28;20011;-76
2023/07/18 00:57:41;;;;;;;;;;;16.90;1.00;;;;;;5027022;28;19968;-77
2023/07/18 01:00:11;;;;;;;;;;;16.90;1.00;;;;;;5006038;28;19940;-77
2023/07/18 01:02:38;;;;;;;;;;;16.90;1.00;;;;;;5028693;28;19928;-76
2023/07/18 01:05:04;;;;;;;;;;;16.90;1.00;;;;;;5058556;28;19928;-79
2023/07/18 01:07:29;;;;;;;;;;;16.90;1.00;;;;;;5040666;28;19932;-77
2023/07/18 01:10:13;;;;;;;;;;;16.90;1.00;;;;;;5027053;28;19932;-82
2023/07/18 01:12:39;;;;;;;;;;;16.80;1.00;;;;;;5018132;28;19932;-78
2023/07/18 01:15:05;;;;;;;;;;;16.80;1.00;;;;;;5016754;28;20126;-82
2023/07/18 01:17:31;;;;;;;;;;;16.80;1.00;;;;;;5036939;28;20467;-80
2023/07/18 01:19:56;;;;;;;;;;;16.80;1.00;;;;;;5021785;28;20060;-81
2023/07/18 01:22:22;;;;;;;;;;;16.80;1.00;;;;;;5019915;28;20018;-78
2023/07/18 01:24:48;;;;;;;;;;;16.80;1.00;;;;;;5009595;28;19929;-78
2023/07/18 01:27:13;;;;;;;;;;;16.70;1.00;;;;;;5001518;28;20001;-79
2023/07/18 01:29:39;;;;;;;;;;;16.70;1.00;;;;;;5008891;28;19929;-79
2023/07/18 01:32:05;;;;;;;;;;;16.70;1.00;;;;;;5011162;28;19950;-81
2023/07/18 01:34:31;;;;;;;;;;;16.70;1.00;;;;;;5021932;28;19925;-78
2023/07/18 01:36:57;;;;;;;;;;;16.70;1.00;;;;;;5021335;28;19925;-81
2023/07/18 01:39:22;;;;;;;;;;;16.70;1.00;;;;;;5023735;28;20402;-77
2023/07/18 01:41:49;;;;;;;;;;;16.70;1.00;;;;;;5025281;28;19937;-85
2023/07/18 01:44:21;;;;;;;;;;;16.60;1.00;;;;;;5046397;28;19932;-76
2023/07/18 01:46:52;;;;;;;;;;;16.60;1.00;;;;;;5014389;28;20312;-82
2023/07/18 01:49:17;;;;;;;;;;;16.60;1.00;;;;;;5045934;28;20398;-74
2023/07/18 01:51:43;;;;;;;;;;;16.60;1.00;;;;;;5011371;28;20330;-75
2023/07/18 01:54:09;;;;;;;;;;;16.60;1.00;;;;;;5029686;28;19932;-81
2023/07/18 01:56:35;;;;;;;;;;;16.60;1.00;;;;;;5028819;28;19932;-78
2023/07/18 01:59:00;;;;;;;;;;;16.60;1.00;;;;;;5011766;28;19932;-79
2023/07/18 02:01:26;;;;;;;;;;;16.60;1.00;;;;;;5020119;28;19929;-79
2023/07/18 02:03:52;;;;;;;;;;;16.60;1.00;;;;;;5021624;28;19928;-76
2023/07/18 02:06:17;;;;;;;;;;;16.60;1.00;;;;;;5003295;28;20057;-75
2023/07/18 02:08:43;;;;;;;;;;;16.60;1.00;;;;;;5020672;28;19925;-80
2023/07/18 02:11:08;;;;;;;;;;;16.60;1.00;;;;;;5008207;28;20425;-76
2023/07/18 02:13:34;;;;;;;;;;;16.60;1.00;;;;;;5019837;28;20023;-76
2023/07/18 02:16:00;;;;;;;;;;;16.60;1.00;;;;;;5020836;28;20005;-77
2023/07/18 02:18:26;;;;;;;;;;;16.60;1.00;;;;;;5010562;28;21114;-77
2023/07/18 02:20:51;;;;;;;;;;;16.60;1.00;;;;;;5005708;28;19956;-82
2023/07/18 02:23:17;;;;;;;;;;;16.60;1.00;;;;;;5038862;28;19964;-76
2023/07/18 02:25:43;;;;;;;;;;;16.60;1.00;;;;;;5021356;28;19935;-76
2023/07/18 02:28:10;;;;;;;;;;;16.50;1.00;;;;;;5041554;28;19943;-83
2023/07/18 02:30:36;;;;;;;;;;;16.50;1.00;;;;;;5020069;28;20386;-77
2023/07/18 02:33:04;;;;;;;;;;;16.50;1.00;;;;;;5047357;28;20002;-78
2023/07/18 02:35:30;;;;;;;;;;;16.50;1.00;;;;;;5037482;28;20059;-76
2023/07/18 02:37:56;;;;;;;;;;;16.50;1.00;;;;;;5023175;28;20243;-80
2023/07/18 02:40:44;;;;;;;;;;;16.50;1.00;;;;;;5040988;28;19971;-81
2023/07/18 02:43:19;;;;;;;;;;;17.10;1.00;;;;;;5052959;28;19964;-79
2023/07/18 02:45:44;;;;;;;;;;;16.40;1.00;;;;;;5022173;28;20023;-86
2023/07/18 02:48:10;;;;;;;;;;;16.40;1.00;;;;;;5041622;28;19932;-80
2023/07/18 02:50:35;;;;;;;;;;;16.40;1.00;;;;;;5022966;28;19975;-79
2023/07/18 02:53:01;;;;;;;;;;;16.40;1.00;;;;;;5006847;28;19939;-78
2023/07/18 02:55:27;;;;;;;;;;;16.40;1.00;;;;;;5022038;28;21441;-80
2023/07/18 02:57:53;;;;;;;;;;;16.40;1.00;;;;;;5022755;28;19932;-83
2023/07/18 03:00:26;;;;;;;;;;;16.40;1.00;;;;;;5038666;28;19959;-81
2023/07/18 03:02:52;;;;;;;;;;;16.40;1.00;;;;;;5055085;28;19925;-80
2023/07/18 03:05:21;;;;;;;;;;;16.40;1.00;;;;;;5015624;28;20454;-80
2023/07/18 03:07:54;;;;;;;;;;;16.40;1.00;;;;;;5008575;28;19939;-79
2023/07/18 03:10:20;;;;;;;;;;;16.40;1.00;;;;;;5007746;28;19943;-79
2023/07/18 03:12:46;;;;;;;;;;;16.40;1.00;;;;;;5022985;28;19928;-84
2023/07/18 03:15:13;;;;;;;;;;;16.40;1.00;;;;;;5025971;28;19983;-78
2023/07/18 03:17:39;;;;;;;;;;;16.40;1.00;;;;;;5022831;28;20047;-79
2023/07/18 03:20:16;;;;;;;;;;;16.40;1.00;;;;;;5029228;28;19928;-79
2023/07/18 03:22:45;;;;;;;;;;;16.50;1.00;;;;;;5039702;28;22621;-80
2023/07/18 03:25:11;;;;;;;;;;;16.50;1.00;;;;;;5005691;28;19928;-79
2023/07/18 03:27:37;;;;;;;;;;;16.50;1.00;;;;;;5056460;28;20380;-84
2023/07/18 03:30:04;;;;;;;;;;;16.50;1.00;;;;;;5053301;28;19935;-82
2023/07/18 03:32:30;;;;;;;;;;;16.50;1.00;;;;;;5026557;28;20014;-78
2023/07/18 03:34:55;;;;;;;;;;;16.50;1.00;;;;;;5009805;28;19995;-82
2023/07/18 03:37:21;;;;;;;;;;;16.50;1.00;;;;;;5016009;28;19967;-77
2023/07/18 03:39:47;;;;;;;;;;;16.50;1.00;;;;;;5045151;28;19932;-88
2023/07/18 03:42:12;;;;;;;;;;;16.60;1.00;;;;;;5013024;28;20326;-86
2023/07/18 03:44:38;;;;;;;;;;;15.90;1.00;;;;;;5015098;28;20425;-82
2023/07/18 03:47:04;;;;;;;;;;;16.60;1.00;;;;;;5026103;28;19920;-79
2023/07/18 03:49:29;;;;;;;;;;;16.60;1.00;;;;;;5025265;28;20019;-76
2023/07/18 03:51:55;;;;;;;;;;;16.70;1.00;;;;;;5023988;28;19933;-76
2023/07/18 03:54:21;;;;;;;;;;;16.70;1.00;;;;;;5038818;28;20562;-80
2023/07/18 03:56:46;;;;;;;;;;;16.70;1.00;;;;;;5056664;28;19998;-81
2023/07/18 03:59:13;;;;;;;;;;;16.80;1.00;;;;;;5058480;28;19928;-81
2023/07/18 04:01:38;;;;;;;;;;;16.80;1.00;;;;;;5026991;28;19935;-83
2023/07/18 04:04:04;;;;;;;;;;;16.80;1.00;;;;;;5024722;28;19936;-82
2023/07/18 04:06:30;;;;;;;;;;;16.80;1.00;;;;;;5020514;28;20335;-80
2023/07/18 04:08:55;;;;;;;;;;;16.90;1.00;;;;;;5054817;28;19929;-82
2023/07/18 04:11:21;;;;;;;;;;;16.90;1.00;;;;;;5008506;28;20540;-81
2023/07/18 04:13:47;;;;;;;;;;;16.90;1.00;;;;;;5020535;28;20015;-79
2023/07/18 04:16:12;;;;;;;;;;;16.90;1.00;;;;;;5037021;28;19971;-80
2023/07/18 04:18:38;;;;;;;;;;;16.90;1.00;;;;;;5023246;28;20003;-81
2023/07/18 04:21:04;;;;;;;;;;;16.90;1.00;;;;;;5051227;28;19932;-81
2023/07/18 04:23:29;;;;;;;;;;;16.80;1.00;;;;;;5057241;28;19925;-84
2023/07/18 04:25:57;;;;;;;;;;;16.90;1.00;;;;;;5012899;28;19932;-78
2023/07/18 04:28:23;;;;;;;;;;;16.90;1.00;;;;;;5027331;28;19947;-79
2023/07/18 04:30:48;;;;;;;;;;;16.90;1.00;;;;;;5061048;28;20793;-84
2023/07/18 04:33:14;;;;;;;;;;;16.90;1.00;;;;;;5023093;28;19929;-83
2023/07/18 04:35:45;;;;;;;;;;;16.90;1.00;;;;;;5028427;28;19970;-80
2023/07/18 04:38:14;;;;;;;;;;;16.90;1.00;;;;;;5035741;28;19928;-80
2023/07/18 04:40:40;;;;;;;;;;;16.90;1.00;;;;;;5011748;28;20035;-80
2023/07/18 04:43:06;;;;;;;;;;;16.90;1.00;;;;;;5002673;28;19928;-81
2023/07/18 04:45:32;;;;;;;;;;;16.90;1.00;;;;;;5020357;28;19935;-81
2023/07/18 04:47:58;;;;;;;;;;;16.90;1.00;;;;;;5040021;28;19932;-81
2023/07/18 04:50:23;;;;;;;;;;;16.90;1.00;;;;;;5017962;28;20803;-83
2023/07/18 04:52:51;;;;;;;;;;;16.90;1.00;;;;;;5012559;28;19939;-81
2023/07/18 04:55:16;;;;;;;;;;;16.90;1.00;;;;;;5054792;28;20019;-81
2023/07/18 04:57:42;;;;;;;;;;;16.90;1.00;;;;;;5020578;28;19939;-80
2023/07/18 05:00:10;;;;;;;;;;;16.90;1.00;;;;;;5038471;28;19928;-80
2023/07/18 05:02:35;;;;;;;;;;;17.00;1.00;;;;;;5053064;28;20398;-81
2023/07/18 05:05:02;;;;;;;;;;;17.10;1.00;;;;;;5049252;28;20039;-80
2023/07/18 05:07:27;;;;;;;;;;;17.10;1.00;;;;;;5018190;28;19928;-79
2023/07/18 05:09:53;;;;;;;;;;;17.20;1.00;;;;;;5022356;28;20368;-81
2023/07/18 05:12:19;;;;;;;;;;;17.20;1.00;;;;;;5021896;28;19975;-81
2023/07/18 05:14:44;;;;;;;;;;;17.30;1.00;;;;;;5023737;28;20364;-80
2023/07/18 05:17:10;;;;;;;;;;;17.40;1.00;;;;;;5041732;28;20224;-80
2023/07/18 05:19:35;;;;;;;;;;;17.40;1.00;;;;;;5025575;28;19929;-80
2023/07/18 05:22:01;;;;;;;;;;;17.40;1.00;;;;;;5021063;28;20359;-80
2023/07/18 05:24:27;;;;;;;;;;;17.50;1.00;;;;;;5022701;28;20304;-80
2023/07/18 05:26:53;;;;;;;;;;;17.50;1.00;;;;;;5009189;28;19932;-80
2023/07/18 05:29:18;;;;;;;;;;;17.50;1.00;;;;;;5023077;28;19933;-83
2023/07/18 05:31:44;;;;;;;;;;;17.50;1.00;;;;;;5041726;28;19924;-82
2023/07/18 05:34:10;;;;;;;;;;;17.50;1.00;;;;;;5021011;28;20026;-75
2023/07/18 05:36:36;;;;;;;;;;;17.50;1.00;;;;;;5026382;28;19932;-77
2023/07/18 05:39:02;;;;;;;;;;;17.50;1.00;;;;;;5005284;28;19964;-81
2023/07/18 05:41:28;;;;;;;;;;;17.60;1.00;;;;;;5025341;28;19932;-81
2023/07/18 05:43:54;;;;;;;;;;;17.60;1.00;;;;;;4996629;28;19955;-77
2023/07/18 05:46:19;;;;;;;;;;;17.60;99.90;;;;;;4990720;28;19928;-76
2023/07/18 05:48:45;;;;;;;;;;;17.70;99.90;;;;;;5023050;28;19924;-79
2023/07/18 05:51:10;;;;;;;;;;;17.80;99.90;;;;;;5024289;28;19929;-76
2023/07/18 05:53:36;;;;;;;;;;;17.80;99.90;;;;;;5041346;28;20653;-80
2023/07/18 05:56:02;;;;;;;;;;;17.90;99.90;;;;;;5020353;28;20438;-77
2023/07/18 05:58:27;;;;;;;;;;;18.00;97.20;;;;;;5023472;28;20015;-78
2023/07/18 06:00:53;;;;;;;;;;;18.10;1.00;;;;;;5041445;28;19929;-77
2023/07/18 06:03:19;;;;;;;;;;;18.20;1.00;;;;;;5023270;28;19929;-78
2023/07/18 06:05:44;;;;;;;;;;;18.30;99.90;;;;;;5039729;28;19929;-79
2023/07/18 06:08:10;;;;;;;;;;;18.30;45.30;;;;;;5020448;28;19946;-77
2023/07/18 06:10:36;;;;;;;;;;;18.40;1.00;;;;;;5039591;28;19935;-79
2023/07/18 06:13:01;;;;;;;;;;;18.50;99.90;;;;;;5024910;28;20010;-77
2023/07/18 06:15:27;;;;;;;;;;;18.60;1.00;;;;;;5021497;28;19978;-77
2023/07/18 06:17:53;;;;;;;;;;;18.70;99.90;;;;;;5006491;28;19940;-76
2023/07/18 06:20:18;;;;;;;;;;;18.80;99.90;;;;;;5042764;28;20358;-79
2023/07/18 06:22:46;;;;;;;;;;;18.90;1.00;;;;;;5055494;28;19929;-76
2023/07/18 06:25:14;;;;;;;;;;;18.90;84.40;;;;;;5033620;28;20402;-77
2023/07/18 06:27:39;;;;;;;;;;;19.00;1.00;;;;;;5029261;28;20284;-77
2023/07/18 06:30:05;;;;;;;;;;;19.10;99.90;;;;;;5046275;28;19947;-80
2023/07/18 06:32:31;;;;;;;;;;;19.20;1.00;;;;;;5003732;28;19982;-76
2023/07/18 06:34:57;;;;;;;;;;;19.20;99.90;;;;;;5028528;28;22010;-78
2023/07/18 06:37:22;;;;;;;;;;;18.70;99.90;;;;;;5007637;28;20335;-77
2023/07/18 06:39:50;;;;;;;;;;;19.40;99.90;;;;;;5028214;28;19928;-77
2023/07/18 06:42:16;;;;;;;;;;;19.50;99.90;;;;;;5058224;28;20285;-77
2023/07/18 06:44:41;;;;;;;;;;;19.60;99.90;;;;;;5042011;28;19932;-75
2023/07/18 06:47:07;;;;;;;;;;;19.70;1.00;;;;;;5043851;28;20004;-76
2023/07/18 06:49:33;;;;;;;;;;;19.80;99.90;;;;;;5027700;28;19924;-77
2023/07/18 06:51:58;;;;;;;;;;;19.90;99.90;;;;;;5058490;28;20148;-77
2023/07/18 06:54:24;;;;;;;;;;;19.90;99.90;;;;;;5005940;28;19940;-78
2023/07/18 06:56:49;;;;;;;;;;;20.10;1.00;;;;;;5044758;28;19928;-76
2023/07/18 06:59:15;;;;;;;;;;;20.20;1.00;;;;;;5040111;28;19928;-80
2023/07/18 07:01:42;;;;;;;;;;;20.40;99.90;;;;;;5024238;28;20409;-80
2023/07/18 07:04:08;;;;;;;;;;;20.50;99.90;;;;;;5025531;28;19925;-80
2023/07/18 07:06:33;;;;;;;;;;;20.60;1.00;;;;;;5024098;28;19934;-80
2023/07/18 07:08:59;;;;;;;;;;;20.70;99.90;;;;;;5022759;28;19936;-80
2023/07/18 07:11:27;;;;;;;;;;;20.80;99.90;;;;;;5062012;28;19925;-80
2023/07/18 07:13:53;;;;;;;;;;;20.90;99.90;;;;;;5046223;28;19939;-80
2023/07/18 07:16:19;;;;;;;;;;;20.90;99.90;;;;;;5010264;28;20563;-80
2023/07/18 07:18:49;;;;;;;;;;;21.00;99.90;;;;;;5027061;28;20418;-79
2023/07/18 07:21:14;;;;;;;;;;;21.10;99.90;;;;;;5024568;28;19932;-79
2023/07/18 07:23:40;;;;;;;;;;;21.20;99.90;;;;;;5026338;28;19932;-79
2023/07/18 07:26:05;;;;;;;;;;;21.30;1.00;;;;;;5026748;28;19974;-79
2023/07/18 07:28:32;;;;;;;;;;;21.40;90.90;;;;;;5058664;28;20004;-79
2023/07/18 07:31:00;;;;;;;;;;;21.60;1.00;;;;;;5008872;28;19939;-77
2023/07/18 07:33:26;;;;;;;;;;;21.60;1.00;;;;;;5040467;28;20352;-78
2023/07/18 07:35:51;;;;;;;;;;;21.60;1.00;;;;;;5043363;28;19940;-77
2023/07/18 07:38:18;;;;;;;;;;;21.80;99.90;;;;;;5039946;28;20058;-77
2023/07/18 07:40:44;;;;;;;;;;;21.90;99.90;;;;;;5037547;28;19925;-76
2023/07/18 07:43:11;;;;;;;;;;;22.10;99.90;;;;;;5019649;28;20002;-77
2023/07/18 07:45:36;;;;;;;;;;;22.20;99.90;;;;;;5055175;28;19975;-77
2023/07/18 07:48:02;;;;;;;;;;;22.20;99.90;;;;;;5041307;28;20294;-78
2023/07/18 07:50:28;;;;;;;;;;;22.30;99.90;;;;;;5027201;28;19932;-77
2023/07/18 07:52:53;;;;;;;;;;;22.40;99.90;;;;;;5056635;28;20008;-78
2023/07/18 07:55:19;;;;;;;;;;;22.50;99.90;;;;;;5022300;28;20009;-77
2023/07/18 07:57:45;;;;;;;;;;;22.60;99.90;;;;;;5024372;28;19925;-78
2023/07/18 08:00:11;;;;;;;;;;;22.70;99.90;;;;;;5003187;28;20411;-77
2023/07/18 08:02:36;;;;;;;;;;;22.90;99.90;;;;;;5005448;28;20901;-76
2023/07/18 08:05:02;;;;;;;;;;;23.10;99.90;;;;;;5040149;28;20028;-77
2023/07/18 08:07:27;;;;;;;;;;;23.20;99.90;;;;;;5024084;28;19947;-77
2023/07/18 08:09:54;;;;;;;;;;;23.30;99.90;;;;;;5039191;28;19928;-78
2023/07/18 08:12:20;;;;;;;;;;;23.50;99.90;;;;;;5021766;28;20533;-78
2023/07/18 08:14:46;;;;;;;;;;;23.70;99.90;;;;;;5005932;28;19932;-78
2023/07/18 08:17:12;;;;;;;;;;;23.80;99.90;;;;;;5042335;28;20452;-77
2023/07/18 08:19:37;;;;;;;;;;;23.90;99.90;;;;;;5005494;28;19936;-78
2023/07/18 08:22:03;;;;;;;;;;;24.00;99.90;;;;;;5041860;28;20331;-79
2023/07/18 08:24:29;;;;;;;;;;;24.00;99.90;;;;;;5041010;28;20000;-78
2023/07/18 08:26:55;;;;;;;;;;;24.10;99.90;;;;;;5044071;28;20013;-77
2023/07/18 08:29:23;;;;;;;;;;;24.30;99.90;;;;;;5039834;28;19985;-78
2023/07/18 08:31:48;;;;;;;;;;;24.40;99.90;;;;;;5056412;28;19951;-78
2023/07/18 08:34:16;;;;;;;;;;;24.70;99.90;;;;;;5022267;28;20363;-79
2023/07/18 08:36:42;;;;;;;;;;;24.40;99.90;;;;;;5006045;28;19929;-77
2023/07/18 08:39:07;;;;;;;;;;;25.00;99.90;;;;;;5032064;28;20023;-78
2023/07/18 08:41:33;;;;;;;;;;;25.10;99.90;;;;;;5018905;28;19921;-78
2023/07/18 08:43:59;;;;;;;;;;;25.10;99.90;;;;;;5023097;28;19940;-78
2023/07/18 08:46:25;;;;;;;;;;;25.30;99.90;;;;;;5026915;28;19985;-78
2023/07/18 08:48:53;;;;;;;;;;;25.50;99.90;;;;;;5026011;28;21798;-78
2023/07/18 08:51:20;;;;;;;;;;;25.70;80.20;;;;;;5029754;28;19932;-78
2023/07/18 08:53:45;;;;;;;;;;;25.60;40.40;;;;;;5061475;28;20367;-79
2023/07/18 08:56:11;;;;;;;;;;;25.60;29.10;;;;;;5012437;28;19982;-78
2023/07/18 08:58:37;;;;;;;;;;;25.40;88.10;;;;;;5045580;28;19925;-78
2023/07/18 09:01:03;;;;;;;;;;;25.20;94.60;;;;;;5042862;28;20472;-78
2023/07/18 09:03:28;;;;;;;;;;;25.10;59.10;;;;;;5025031;28;19975;-79
2023/07/18 09:05:54;;;;;;;;;;;25.10;43.20;;;;;;5026675;28;21632;-79
2023/07/18 09:08:21;;;;;;;;;;;25.30;24.20;;;;;;5005126;28;20053;-78
2023/07/18 09:10:47;;;;;;;;;;;25.40;1.00;;;;;;5026804;28;19935;-78
2023/07/18 09:13:13;;;;;;;;;;;25.60;1.00;;;;;;5022590;28;19928;-78
2023/07/18 09:15:39;;;;;;;;;;;25.70;1.00;;;;;;5013958;28;19935;-78
2023/07/18 09:18:05;;;;;;;;;;;25.60;1.00;;;;;;5010616;28;20180;-78
2023/07/18 09:20:32;;;;;;;;;;;25.80;1.00;;;;;;5028602;28;19928;-78
2023/07/18 09:22:58;;;;;;;;;;;25.70;1.00;;;;;;5044121;28;21925;-78
2023/07/18 09:25:24;;;;;;;;;;;25.80;1.00;;;;;;5027967;28;19950;-80
2023/07/18 09:27:50;;;;;;;;;;;25.80;1.00;;;;;;5012992;28;19933;-79
2023/07/18 09:30:20;;;;;;;;;;;25.80;1.00;;;;;;5025526;28;20334;-78
2023/07/18 09:32:49;;;;;;;;;;;25.90;1.00;;;;;;5042768;28;20653;-79
2023/07/18 09:35:17;;;;;;;;;;;25.90;1.00;;;;;;5045119;28;21591;-79
2023/07/18 09:37:45;;;;;;;;;;;26.00;1.00;;;;;;5006459;28;20021;-78
2023/07/18 09:40:11;;;;;;;;;;;26.00;1.00;;;;;;5054490;28;20016;-78
2023/07/18 09:42:38;;;;;;;;;;;26.00;1.00;;;;;;5029288;28;19925;-78
2023/07/18 09:45:03;;;;;;;;;;;26.30;1.00;;;;;;5023060;28;19927;-78
2023/07/18 09:47:31;;;;;;;;;;;26.50;1.00;;;;;;5040312;28;19929;-78
2023/07/18 09:49:57;;;;;;;;;;;26.80;1.00;;;;;;5039503;28;20019;-79
2023/07/18 09:52:25;;;;;;;;;;;26.70;1.00;;;;;;5039156;28;19935;-77
2023/07/18 09:54:52;;;;;;;;;;;26.70;1.00;;;;;;5007057;28;20449;-78
2023/07/18 09:57:19;;;;;;;;;;;26.60;1.00;;;;;;5025888;28;19929;-77
2023/07/18 09:59:47;;;;;;;;;;;26.70;1.00;;;;;;5056575;28;19982;-78
2023/07/18 10:02:13;;;;;;;;;;;26.50;1.00;;;;;;5038397;28;19936;-80
2023/07/18 10:04:39;;;;;;;;;;;26.60;1.00;;;;;;5018649;28;19928;-76
2023/07/18 10:07:08;;;;;;;;;;;26.50;1.00;;;;;;5047611;28;20454;-77
2023/07/18 10:09:35;;;;;;;;;;;26.50;1.00;;;;;;5028246;28;19932;-77
2023/07/18 10:12:03;;;;;;;;;;;26.70;1.00;;;;;;5046664;28;19932;-77
2023/07/18 10:14:29;;;;;;;;;;;26.70;1.00;;;;;;5059038;28;19925;-76
2023/07/18 10:16:55;;;;;;;;;;;26.70;1.00;;;;;;5024705;28;20866;-75
2023/07/18 10:19:24;;;;;;;;;;;26.60;1.00;;;;;;5027316;28;19936;-76
2023/07/18 10:21:53;;;;;;;;;;;26.60;1.00;;;;;;5043746;28;19947;-78
2023/07/18 10:24:26;;;;;;;;;;;26.60;1.00;;;;;;5058020;28;19979;-78
2023/07/18 10:26:52;;;;;;;;;;;26.50;1.00;;;;;;5028588;28;19935;-78
2023/07/18 10:29:18;;;;;;;;;;;26.40;1.00;;;;;;5046381;28;20415;-78
2023/07/18 10:31:44;;;;;;;;;;;26.20;1.00;;;;;;5010252;28;20548;-77
2023/07/18 10:34:11;;;;;;;;;;;26.00;1.00;;;;;;5059080;28;19991;-79
2023/07/18 10:36:37;;;;;;;;;;;25.70;1.00;;;;;;5011051;28;20858;-79
2023/07/18 10:39:08;;;;;;;;;;;25.30;1.00;;;;;;5046366;28;19929;-77
2023/07/18 10:41:35;;;;;;;;;;;25.40;1.00;;;;;;5030663;28;20072;-77
2023/07/18 10:44:00;;;;;;;;;;;25.50;1.00;;;;;;5004579;28;20153;-76
2023/07/18 10:46:36;;;;;;;;;;;25.80;1.00;;;;;;4997718;28;20372;-78
2023/07/18 10:49:02;;;;;;;;;;;26.10;1.00;;;;;;5029579;28;19929;-79
2023/07/18 10:51:29;;;;;;;;;;;26.50;1.00;;;;;;5047559;28;19935;-79
2023/07/18 10:53:55;;;;;;;;;;;26.50;1.00;;;;;;5028071;28;20403;-76
2023/07/18 10:56:23;;;;;;;;;;;26.30;1.00;;;;;;5028317;28;19925;-77
2023/07/18 10:58:51;;;;;;;;;;;26.30;1.00;;;;;;5013631;28;19933;-76
2023/07/18 11:01:17;;;;;;;;;;;26.40;1.00;;;;;;5056084;28;19936;-77
2023/07/18 11:03:45;;;;;;;;;;;26.60;1.00;;;;;;5028848;28;19943;-77
2023/07/18 11:06:11;;;;;;;;;;;26.90;1.00;;;;;;5022658;28;19979;-76
2023/07/18 11:08:37;;;;;;;;;;;26.70;1.00;;;;;;5047858;28;20294;-77
2023/07/18 11:11:04;;;;;;;;;;;26.40;1.00;;;;;;5044226;28;19928;-76
2023/07/18 11:13:30;;;;;;;;;;;26.20;1.00;;;;;;5026293;28;20011;-76
2023/07/18 11:15:56;;;;;;;;;;;26.10;1.00;;;;;;5042221;28;19978;-76
2023/07/18 11:18:22;;;;;;;;;;;25.90;1.00;;;;;;5031195;28;19929;-76
2023/07/18 11:20:48;;;;;;;;;;;25.70;1.00;;;;;;5025498;28;19928;-76
2023/07/18 11:23:13;;;;;;;;;;;25.40;1.00;;;;;;5024936;28;19928;-81
2023/07/18 11:25:39;;;;;;;;;;;25.10;1.00;;;;;;5011111;28;20017;-78
2023/07/18 11:28:05;;;;;;;;;;;24.90;1.00;;;;;;5021834;28;19925;-79
2023/07/18 11:30:31;;;;;;;;;;;24.60;1.00;;;;;;5026727;28;19947;-80
2023/07/18 11:32:57;;;;;;;;;;;24.30;1.00;;;;;;5026303;28;19933;-80
2023/07/18 11:35:23;;;;;;;;;;;24.10;1.00;;;;;;5025005;28;19921;-79
2023/07/18 11:37:52;;;;;;;;;;;23.90;1.00;;;;;;5026767;28;19940;-81
2023/07/18 11:40:20;;;;;;;;;;;23.80;1.00;;;;;;5054198;28;20287;-78
2023/07/18 11:42:49;;;;;;;;;;;23.60;1.00;;;;;;5024171;28;19925;-79
2023/07/18 11:45:19;;;;;;;;;;;23.40;1.00;;;;;;5025371;28;19926;-79
2023/07/18 11:47:47;;;;;;;;;;;23.40;1.00;;;;;;5057002;28;19954;-78
2023/07/18 11:50:13;;;;;;;;;;;23.40;1.00;;;;;;5059686;28;20589;-79
2023/07/18 11:52:46;;;;;;;;;;;23.50;1.00;;;;;;5024125;28;19951;-79
2023/07/18 11:55:12;;;;;;;;;;;23.90;1.00;;;;;;5024648;28;19943;-79
2023/07/18 11:57:38;;;;;;;;;;;24.50;1.00;;;;;;5025424;28;20264;-79
2023/07/18 12:00:04;;;;;;;;;;;24.80;1.00;;;;;;5025569;28;19940;-79
2023/07/18 12:02:30;;;;;;;;;;;25.10;1.00;;;;;;5043816;28;19936;-79
2023/07/18 12:04:56;;;;;;;;;;;25.10;1.00;;;;;;5045724;28;20097;-80
2023/07/18 12:07:21;;;;;;;;;;;25.10;1.00;;;;;;5021379;28;20024;-79
2023/07/18 12:09:47;;;;;;;;;;;25.60;1.00;;;;;;5040639;28;19928;-78
2023/07/18 12:12:12;;;;;;;;;;;25.00;1.00;;;;;;5006542;28;20402;-79
2023/07/18 12:14:38;;;;;;;;;;;24.90;1.00;;;;;;5025717;28;19993;-80
2023/07/18 12:17:04;;;;;;;;;;;24.70;1.00;;;;;;5023028;28;19936;-81
2023/07/18 12:19:29;;;;;;;;;;;24.60;1.00;;;;;;5016731;28;19935;-80
2023/07/18 12:21:55;;;;;;;;;;;24.40;1.00;;;;;;5035636;28;19925;-79
2023/07/18 12:24:20;;;;;;;;;;;24.20;1.00;;;;;;5041281;28;19981;-79
2023/07/18 12:26:46;;;;;;;;;;;24.10;1.00;;;;;;5023950;28;19929;-80
2023/07/18 12:29:16;;;;;;;;;;;24.00;1.00;;;;;;5018165;28;20326;-79
2023/07/18 12:31:46;;;;;;;;;;;24.00;1.00;;;;;;5021602;28;19975;-79
2023/07/18 12:34:13;;;;;;;;;;;24.00;1.00;;;;;;5006408;28;19937;-78
2023/07/18 12:36:38;;;;;;;;;;;24.20;1.00;;;;;;5049765;28;19932;-80
2023/07/18 12:39:04;;;;;;;;;;;24.80;1.00;;;;;;5054251;28;20185;-78
2023/07/18 12:41:30;;;;;;;;;;;25.40;1.00;;;;;;5023945;28;19983;-79
2023/07/18 12:43:55;;;;;;;;;;;25.80;1.00;;;;;;4996636;28;20020;-80
2023/07/18 12:46:26;;;;;;;;;;;26.20;1.00;;;;;;5026909;28;19933;-78
2023/07/18 12:48:55;;;;;;;;;;;26.60;1.00;;;;;;5013313;28;19958;-79
2023/07/18 12:51:21;;;;;;;;;;;26.80;1.00;;;;;;5031786;28;19929;-81
2023/07/18 12:53:47;;;;;;;;;;;26.90;1.00;;;;;;5062415;28;19929;-81
2023/07/18 12:56:14;;;;;;;;;;;26.90;1.00;;;;;;5027756;28;20454;-80
2023/07/18 12:58:41;;;;;;;;;;;26.60;1.00;;;;;;5047781;28;20399;-80
2023/07/18 13:01:07;;;;;;;;;;;26.30;1.00;;;;;;5046219;28;20347;-80
2023/07/18 13:03:33;;;;;;;;;;;26.00;1.00;;;;;;5020042;28;19925;-80
2023/07/18 13:05:59;;;;;;;;;;;25.80;1.00;;;;;;5028314;28;19929;-81
2023/07/18 13:08:25;;;;;;;;;;;25.70;1.00;;;;;;5049042;28;20374;-81
2023/07/18 13:10:51;;;;;;;;;;;25.50;1.00;;;;;;5039575;28;19929;-80
2023/07/18 13:13:16;;;;;;;;;;;25.40;1.00;;;;;;5012198;28;19948;-81
2023/07/18 13:15:44;;;;;;;;;;;25.50;1.00;;;;;;5060586;28;19924;-81
2023/07/18 13:18:10;;;;;;;;;;;25.30;1.00;;;;;;5051240;28;19925;-81
2023/07/18 13:20:36;;;;;;;;;;;25.10;1.00;;;;;;5030153;28;19932;-81
2023/07/18 13:23:01;;;;;;;;;;;24.90;1.00;;;;;;5013439;28;21217;-81
2023/07/18 13:25:28;;;;;;;;;;;24.70;1.00;;;;;;5029999;28;19948;-81
2023/07/18 13:27:53;;;;;;;;;;;24.50;1.00;;;;;;5032610;28;19935;-82
2023/07/18 13:30:19;;;;;;;;;;;24.30;1.00;;;;;;5032712;28;19929;-82
2023/07/18 13:32:45;;;;;;;;;;;24.30;1.00;;;;;;5032654;28;20357;-82
2023/07/18 13:35:11;;;;;;;;;;;24.30;1.00;;;;;;5062798;28;19951;-82
2023/07/18 13:37:36;;;;;;;;;;;24.40;1.00;;;;;;5064476;28;19932;-81
2023/07/18 13:40:02;;;;;;;;;;;24.40;1.00;;;;;;5050994;28;19928;-82
2023/07/18 13:42:27;;;;;;;;;;;24.30;1.00;;;;;;5015962;28;20013;-83
2023/07/18 13:44:54;;;;;;;;;;;24.40;1.00;;;;;;5051378;28;19972;-80
2023/07/18 13:47:20;;;;;;;;;;;24.70;1.00;;;;;;5069210;28;19925;-83
2023/07/18 13:49:46;;;;;;;;;;;25.00;1.00;;;;;;5038163;28;19929;-83
2023/07/18 13:52:11;;;;;;;;;;;25.10;1.00;;;;;;5038837;28;19940;-81
2023/07/18 13:54:37;;;;;;;;;;;25.10;1.00;;;;;;5016701;28;20256;-84
2023/07/18 13:57:04;;;;;;;;;;;25.30;1.00;;;;;;5055426;28;20019;-82
2023/07/18 13:59:29;;;;;;;;;;;25.50;1.00;;;;;;5065551;28;19925;-84
2023/07/18 14:01:55;;;;;;;;;;;25.70;1.00;;;;;;5036986;28;19941;-83
2023/07/18 14:04:22;;;;;;;;;;;25.70;1.00;;;;;;5023407;28;19929;-82
2023/07/18 14:06:50;;;;;;;;;;;25.60;1.00;;;;;;5051727;28;19951;-83
2023/07/18 14:09:16;;;;;;;;;;;25.50;1.00;;;;;;5037162;28;19970;-83
2023/07/18 14:11:42;;;;;;;;;;;25.40;1.00;;;;;;5035871;28;19935;-82
2023/07/18 14:14:08;;;;;;;;;;;25.30;1.00;;;;;;5034783;28;20363;-85
2023/07/18 14:16:34;;;;;;;;;;;25.20;1.00;;;;;;5053217;28;20286;-81
2023/07/18 14:19:01;;;;;;;;;;;25.30;1.00;;;;;;5046011;28;19932;-83
2023/07/18 14:21:27;;;;;;;;;;;25.30;1.00;;;;;;5071985;28;19939;-82
2023/07/18 14:23:53;;;;;;;;;;;25.50;1.00;;;;;;5030389;28;20357;-84